Safmarine Nile — VRKZ6 — position and weather

sailwx.info

Track history (hours):
 
Tides and Currents Weather Stations Pressure Air Temp Water Temp Dewpoint Dewpoint Depression Visibility Wind Speed Wind Dir Waves Ship Positions

Safmarine Nile

Last reported at 2017-Oct-24 09:51 UTC. Time now 2017-Nov-19 16:03 UTC.
Position N 25°40' W 015°41'.
Warning: this ship's position is 26 days out of date.

Length 210 m; draft 11.1 m.

Type: Ship (hazmat cat A). MMSI: 477552700.

Date/timePositionNaut miles runAvg speedWind from/ knotsBaromVisibWave heightAir tempDewpointWater temp
2017-Oct-24 09:51N 25°40' W 015°41'6413.3
2017-Oct-24 05:04N 26°31' W 014°59'112.1
2017-Oct-24 05:00N 26°32' W 014°58'5912.5
2017-Oct-24 00:18N 27°19' W 014°19'1112.6
2017-Oct-23 23:25N 27°28' W 014°12'2212.4
2017-Oct-23 21:38N 27°46' W 013°57'212.5
2017-Oct-23 21:29N 27°47' W 013°55'  
2017-Oct-16 13:25N 36°01' W 005°14'510.7
2017-Oct-16 12:58N 36°00' W 005°19'910.1
2017-Oct-16 12:03N 35°57' W 005°30'1 9.2
2017-Oct-16 11:58N 35°57' W 005°31'168 8.5
2017-Oct-15 16:10N 36°29' W 008°55'2 9.7
2017-Oct-15 15:59N 36°30' W 008°57'1410.3
2017-Oct-15 14:41N 36°34' W 009°13'710.0
2017-Oct-15 14:00N 36°37' W 009°20'510.1
2017-Oct-15 13:30N 36°41' W 009°25'83 9.0
2017-Oct-15 04:13N 38°04' W 009°30'210.4
2017-Oct-15 04:00N 38°06' W 009°29'510.3
2017-Oct-15 03:30N 38°12' W 009°28'510.1
2017-Oct-15 02:59N 38°17' W 009°27'610.1
2017-Oct-15 02:20N 38°23' W 009°26'310.0
2017-Oct-15 02:00N 38°26' W 009°25'510.0
2017-Oct-15 01:30N 38°31' W 009°24'510.4
2017-Oct-15 01:01N 38°36' W 009°22'510.2
2017-Oct-15 00:29N 38°40' W 009°18'4 8.9
2017-Oct-14 23:59N 38°41' W 009°13'2 0.2
2017-Oct-14 14:27N 38°42' W 009°10'  
Track history (hours):
 
Tides and Currents Weather Stations Pressure Air Temp Water Temp Dewpoint Dewpoint Depression Visibility Wind Speed Wind Dir Waves Ship Positions

Safmarine Nile

Last reported at 2017-Oct-24 09:51 UTC. Time now 2017-Nov-19 16:03 UTC.
Position N 25°40' W 015°41'.
Warning: this ship's position is 26 days out of date.

Length 210 m; draft 11.1 m.

Type: Ship (hazmat cat A). MMSI: 477552700.

Date/timePositionNaut miles runAvg speedWind from/ knotsBaromVisibWave heightAir tempDewpointWater temp
2017-Oct-24 09:51N 25°40' W 015°41'6413.3
2017-Oct-24 05:04N 26°31' W 014°59'112.1
2017-Oct-24 05:00N 26°32' W 014°58'5912.5
2017-Oct-24 00:18N 27°19' W 014°19'1112.6
2017-Oct-23 23:25N 27°28' W 014°12'2212.4
2017-Oct-23 21:38N 27°46' W 013°57'212.5
2017-Oct-23 21:29N 27°47' W 013°55'  
2017-Oct-16 13:25N 36°01' W 005°14'510.7
2017-Oct-16 12:58N 36°00' W 005°19'910.1
2017-Oct-16 12:03N 35°57' W 005°30'1 9.2
2017-Oct-16 11:58N 35°57' W 005°31'168 8.5
2017-Oct-15 16:10N 36°29' W 008°55'2 9.7
2017-Oct-15 15:59N 36°30' W 008°57'1410.3
2017-Oct-15 14:41N 36°34' W 009°13'710.0
2017-Oct-15 14:00N 36°37' W 009°20'510.1
2017-Oct-15 13:30N 36°41' W 009°25'83 9.0
2017-Oct-15 04:13N 38°04' W 009°30'210.4
2017-Oct-15 04:00N 38°06' W 009°29'510.3
2017-Oct-15 03:30N 38°12' W 009°28'510.1
2017-Oct-15 02:59N 38°17' W 009°27'610.1
2017-Oct-15 02:20N 38°23' W 009°26'310.0
2017-Oct-15 02:00N 38°26' W 009°25'510.0
2017-Oct-15 01:30N 38°31' W 009°24'510.4
2017-Oct-15 01:01N 38°36' W 009°22'510.2
2017-Oct-15 00:29N 38°40' W 009°18'4 8.9
2017-Oct-14 23:59N 38°41' W 009°13'2 0.2
2017-Oct-14 14:27N 38°42' W 009°10'  

Dump ship's entire track history